SAME/MDZ METAR and TAF weather

Enter ICAO airport designator
Station Type Date Time Source
SAME METAR 2020/12/06 01:00 UTC NOAA

SAME 060100Z 36005KT CAVOK 24/08 Q1018


Station Type Date Time Source
SAME Decoded METAR 2020/12/06 01:00 UTC NOAA

Mendoza Aerodrome, Argentina (SAME) 32-50S 068-47W 704M
Dec 05, 2020 - 08:00 PM EST / 2020.12.06 0100 UTC
Wind: from the N (360 degrees) at 6 MPH (5 KT):0
Visibility: greater than 7 mile(s):0
Temperature: 75 F (24 C)
Dew Point: 46 F (8 C)
Relative Humidity: 35%
Pressure (altimeter): 30.06 in. Hg (1018 hPa)
ob: SAME 060100Z 36005KT CAVOK 24/08 Q1018
cycle: 1

Station Type Date Time Source
SAME TAF 2020/12/06 00:00 UTC NOAA

TAF SAME 052300Z 0600/0624 09010KT 9999 FEW040 TX32/0620Z TN15/0610Z
BECMG 0602/0604 20005KT CAVOK
BECMG 0614/0616 05010KT

Example: see airport list